| time (UTC) | temp C | wind direction | speed KPH | gust KPH | rain 1hr cm | rain 24hr cm | rain mn cm | humidity % | barometer mb |
| 20260510000004 | 28 | 176 | 0.0 | 11.3 | 0.00 | 0.03 | 0.03 | 37 | 1008.1 |
| 20260509234501 | 30 | 145 | 3.2 | 9.7 | 0.00 | 0.03 | 0.03 | 34 | 1008.0 |
| 20260509233100 | 30 | 213 | 3.2 | 14.5 | 0.00 | 0.03 | 0.03 | 31 | 1008.1 |
| 20260509231608 | 31 | 218 | 1.6 | 9.7 | 0.00 | 0.03 | 0.03 | 31 | 1008.2 |
| 20260509230057 | 31 | 207 | 3.2 | 9.7 | 0.00 | 0.03 | 0.03 | 31 | 1008.3 |
| 20260509224556 | 31 | 207 | 6.4 | 12.9 | 0.00 | 0.71 | 0.03 | 30 | 1008.4 |
| 20260509223055 | 31 | 221 | 4.8 | 11.3 | 0.00 | 0.71 | 0.03 | 31 | 1008.7 |
| 20260509221552 | 31 | 210 | 4.8 | 11.3 | 0.00 | 0.71 | 0.03 | 30 | 1008.8 |
| 20260509220051 | 31 | 218 | 3.2 | 11.3 | 0.00 | 0.71 | 0.03 | 30 | 1009.0 |
| 20260509214551 | 31 | 20 | 3.2 | 9.7 | 0.00 | 0.71 | 0.03 | 29 | 1009.0 |
| 20260509213049 | 31 | 216 | 3.2 | 12.9 | 0.00 | 0.71 | 0.03 | 31 | 1009.0 |
| 20260509211554 | 31 | 124 | 4.8 | 11.3 | 0.00 | 0.71 | 0.03 | 30 | 1009.3 |
| 20260509210053 | 30 | 181 | 1.6 | 9.7 | 0.00 | 0.71 | 0.03 | 30 | 1009.4 |
| 20260509204546 | 30 | 237 | 1.6 | 16.1 | 0.00 | 0.71 | 0.03 | 29 | 1009.6 |
| 20260509203042 | 30 | 223 | 1.6 | 0.0 | 0.00 | 0.00 | 0.03 | 29 | 1009.7 |
| 20260509201539 | 31 | 205 | 1.6 | 8.0 | 0.00 | 0.71 | 0.03 | 31 | 1009.8 |
| 20260509200046 | 30 | 148 | 3.2 | 9.7 | 0.00 | 0.71 | 0.03 | 31 | 1010.1 |
| 20260509194535 | 30 | 123 | 0.0 | 6.4 | 0.00 | 0.71 | 0.03 | 32 | 1010.3 |
| 20260509193031 | 30 | 89 | 0.0 | 14.5 | 0.00 | 0.71 | 0.03 | 37 | 1010.4 |
| 20260509191530 | 30 | 70 | 3.2 | 9.7 | 0.00 | 0.71 | 0.03 | 33 | 1010.5 |
| 20260509190035 | 30 | 181 | 1.6 | 6.4 | 0.00 | 0.71 | 0.03 | 35 | 1010.8 |
| 20260509184534 | 29 | 214 | 0.0 | 6.4 | 0.00 | 0.71 | 0.03 | 36 | 1011.0 |
| 20260509183023 | 28 | 205 | 1.6 | 9.7 | 0.00 | 0.71 | 0.03 | 35 | 1011.1 |
| 20260509181522 | 28 | 165 | 3.2 | 11.3 | 0.00 | 0.71 | 0.03 | 34 | 1011.3 |
| 20260509180023 | 28 | 212 | 4.8 | 11.3 | 0.00 | 0.71 | 0.03 | 33 | 1011.5 |
| 20260509174519 | 28 | 207 | 3.2 | 9.7 | 0.00 | 0.71 | 0.03 | 37 | 1011.8 |
| 20260509173048 | 27 | 207 | 1.6 | 11.3 | 0.00 | 0.71 | 0.03 | 38 | 1012.1 |
| 20260509171523 | 27 | 193 | 4.8 | 12.9 | 0.00 | 0.71 | 0.03 | 41 | 1012.3 |
| 20260509170016 | 27 | 217 | 1.6 | 6.4 | 0.00 | 0.71 | 0.03 | 41 | 1012.3 |
| 20260509164509 | 27 | 193 | 1.6 | 8.0 | 0.00 | 0.71 | 0.03 | 44 | 1012.4 |
| 20260509163008 | 26 | 217 | 0.0 | 8.0 | 0.00 | 0.71 | 0.03 | 50 | 1012.5 |
| 20260509161503 | 26 | 149 | 1.6 | 6.4 | 0.00 | 0.71 | 0.03 | 49 | 1012.6 |
| 20260509154554 | 23 | 127 | 0.0 | 4.8 | 0.00 | 0.71 | 0.03 | 70 | 1012.3 |
| 20260509153049 | 22 | 152 | 0.0 | 4.8 | 0.00 | 0.71 | 0.03 | 78 | 1012.5 |
| 20260509151600 | 21 | 143 | 0.0 | 4.8 | 0.00 | 0.71 | 0.03 | 83 | 1012.4 |
| 20260509150048 | 20 | 211 | 0.0 | 6.4 | 0.00 | 0.71 | 0.03 | 92 | 1012.4 |
| 20260509144539 | 19 | 158 | 0.0 | 4.8 | 0.00 | 0.71 | 0.03 | 94 | 1012.3 |
| 20260509143039 | 17 | 48 | 0.0 | 4.8 | 0.00 | 0.71 | 0.03 | 95 | 1012.4 |
| 20260509141536 | 17 | 48 | 0.0 | 1.6 | 0.00 | 0.71 | 0.03 | 95 | 1012.5 |
| 20260509140033 | 18 | 97 | 0.0 | 0.0 | 0.00 | 0.00 | 0.03 | 95 | 1012.5 |
| 20260509134529 | 16 | 97 | 0.0 | 1.6 | 0.00 | 0.71 | 0.03 | 96 | 1012.5 |
| 20260509133027 | 15 | 97 | 0.0 | 0.0 | 0.00 | 0.71 | 0.03 | 97 | 1012.4 |
| 20260509131532 | 14 | 97 | 0.0 | 1.6 | 0.00 | 0.71 | 0.03 | 97 | 1012.2 |
| 20260509130051 | 13 | 97 | 0.0 | 1.6 | 0.00 | 0.71 | 0.03 | 97 | 1012.0 |
| 20260509124532 | 13 | 97 | 0.0 | 0.0 | 0.00 | 0.71 | 0.03 | 97 | 1011.9 |
| 20260509123034 | 12 | 97 | 0.0 | 0.0 | 0.00 | 0.71 | 0.03 | 97 | 1011.8 |
| 20260509121523 | 12 | 97 | 0.0 | 0.0 | 0.00 | 0.00 | 0.03 | 97 | 1011.6 |
| 20260509120029 | 11 | 97 | 0.0 | 0.0 | 0.00 | 0.71 | 0.03 | 96 | 1011.5 |
| 20260509114522 | 11 | 97 | 0.0 | 0.0 | 0.00 | 0.71 | 0.03 | 96 | 1011.4 |
| 20260509113021 | 11 | 97 | 0.0 | 0.0 | 0.00 | 0.71 | 0.03 | 96 | 1011.1 |
| 20260509111519 | 11 | 97 | 0.0 | 0.0 | 0.00 | 0.71 | 0.03 | 96 | 1011.0 |
| 20260509110021 | 11 | 97 | 0.0 | 0.0 | 0.00 | 0.71 | 0.03 | 96 | 1010.8 |
| 20260509104515 | 12 | 97 | 0.0 | 0.0 | 0.00 | 0.71 | 0.03 | 96 | 1010.9 |
| 20260509103012 | 12 | 97 | 0.0 | 0.0 | 0.00 | 0.71 | 0.03 | 95 | 1010.9 |
| 20260509101513 | 12 | 97 | 0.0 | 0.0 | 0.03 | 0.71 | 0.03 | 96 | 1011.1 |
| 20260509100008 | 12 | 97 | 0.0 | 0.0 | 0.03 | 0.71 | 0.03 | 96 | 1011.4 |
| 20260509094507 | 12 | 97 | 0.0 | 0.0 | 0.03 | 0.71 | 0.03 | 95 | 1011.5 |
| 20260509093006 | 12 | 97 | 0.0 | 0.0 | 0.03 | 0.71 | 0.03 | 95 | 1011.6 |
| 20260509091506 | 13 | 97 | 0.0 | 0.0 | 0.00 | 0.69 | 0.00 | 95 | 1011.4 |
| 20260509090003 | 13 | 97 | 0.0 | 0.0 | 0.00 | 0.69 | 0.00 | 95 | 1011.6 |
| 20260509084502 | 13 | 97 | 0.0 | 0.0 | 0.00 | 0.69 | 0.00 | 95 | 1011.5 |
| 20260509083001 | 13 | 97 | 0.0 | 0.0 | 0.00 | 0.69 | 0.00 | 95 | 1011.3 |
| 20260509081600 | 13 | 97 | 0.0 | 0.0 | 0.00 | 0.69 | 0.00 | 95 | 1011.3 |
| 20260509081501 | 13 | 97 | 0.0 | 0.0 | 0.00 | 0.69 | 0.00 | 95 | 1011.3 |
| 20260509080100 | 13 | 97 | 0.0 | 0.0 | 0.00 | 0.69 | 0.00 | 94 | 1011.5 |
| 20260509074555 | 14 | 97 | 0.0 | 0.0 | 0.00 | 0.69 | 0.00 | 95 | 1011.8 |
| 20260509073052 | 14 | 97 | 0.0 | 0.0 | 0.00 | 0.69 | 0.00 | 94 | 1011.9 |
| 20260509071552 | 14 | 97 | 0.0 | 0.0 | 0.00 | 0.69 | 0.00 | 94 | 1011.9 |
| 20260509070053 | 15 | 97 | 0.0 | 0.0 | 0.00 | 0.69 | 0.00 | 94 | 1011.9 |
| 20260509064557 | 15 | 97 | 0.0 | 1.6 | 0.00 | 0.69 | 0.00 | 94 | 1011.9 |
| 20260509063046 | 15 | 97 | 0.0 | 0.0 | 0.00 | 0.69 | 0.00 | 94 | 1011.7 |
| 20260509061559 | 15 | 97 | 0.0 | 1.6 | 0.00 | 0.69 | 0.00 | 94 | 1012.1 |
| 20260509060045 | 15 | 97 | 0.0 | 1.6 | 0.00 | 0.69 | 0.00 | 94 | 1012.1 |
| 20260509054556 | 15 | 97 | 0.0 | 0.0 | 0.00 | 0.69 | 0.00 | 93 | 1011.9 |
| 20260509053040 | 15 | 97 | 0.0 | 0.0 | 0.00 | 0.69 | 0.00 | 93 | 1011.7 |
| 20260509051537 | 16 | 97 | 0.0 | 0.0 | 0.00 | 0.69 | 0.00 | 93 | 1011.9 |
| 20260509050035 | 16 | 97 | 0.0 | 0.0 | 0.00 | 0.69 | 0.00 | 93 | 1011.8 |
| 20260509044533 | 16 | 89 | 0.0 | 4.8 | 0.00 | 0.69 | 0.69 | 93 | 1012.0 |
| 20260509043033 | 16 | 70 | 0.0 | 4.8 | 0.00 | 0.69 | 0.69 | 93 | 1011.9 |
| 20260509041532 | 16 | 77 | 0.0 | 0.0 | 0.00 | 0.69 | 0.69 | 94 | 1011.8 |
| 20260509040038 | 16 | 77 | 0.0 | 3.2 | 0.00 | 0.69 | 0.69 | 94 | 1011.6 |
| 20260509034533 | 16 | 77 | 0.0 | 1.6 | 0.00 | 0.69 | 0.69 | 94 | 1011.1 |
| 20260509033031 | 16 | 77 | 0.0 | 0.0 | 0.00 | 0.69 | 0.69 | 93 | 1010.7 |
| 20260509031531 | 16 | 77 | 0.0 | 0.0 | 0.00 | 0.69 | 0.69 | 92 | 1010.5 |
| 20260509030030 | 16 | 77 | 0.0 | 0.0 | 0.00 | 0.69 | 0.69 | 92 | 1010.1 |
| 20260509024529 | 17 | 77 | 0.0 | 1.6 | 0.00 | 0.69 | 0.69 | 92 | 1009.8 |
| 20260509023029 | 17 | 77 | 0.0 | 3.2 | 0.00 | 0.69 | 0.69 | 93 | 1009.7 |
| 20260509021528 | 17 | 196 | 0.0 | 0.0 | 0.00 | 0.69 | 0.69 | 92 | 1009.3 |
| 20260509020028 | 17 | 196 | 0.0 | 0.0 | 0.00 | 0.69 | 0.69 | 92 | 1009.1 |
| 20260509014537 | 17 | 196 | 0.0 | 0.0 | 0.00 | 0.69 | 0.69 | 91 | 1008.8 |
| 20260509013026 | 17 | 196 | 0.0 | 0.0 | 0.00 | 0.69 | 0.69 | 89 | 1008.3 |
| 20260509011526 | 18 | 196 | 0.0 | 3.2 | 0.00 | 0.69 | 0.69 | 89 | 1008.3 |
| 20260509010030 | 18 | 208 | 1.6 | 6.4 | 0.00 | 0.69 | 0.69 | 90 | 1008.5 |
| 20260509004524 | 18 | 202 | 1.6 | 9.7 | 0.00 | 0.69 | 0.69 | 91 | 1008.1 |
| 20260509003024 | 20 | 238 | 0.0 | 4.8 | 0.00 | 0.69 | 0.69 | 93 | 1007.6 |
| 20260509001528 | 20 | 186 | 0.0 | 9.7 | 0.00 | 0.69 | 0.69 | 93 | 1007.0 |